Terminal Aerodrome Forecast
Issued by NWS Jackson, MS

Home | Current Version | Previous Version | Text Only | Print | Product List | Glossary On
Versions: 1 2 3 4 5 6 7 8 9 10 11 12 13 14 15 16
740
FTUS44 KJAN 011741
TAFMEI
TAF
KMEI 011741Z 0118/0218 21010G17KT 3SM -TSRA BR BKN007CB OVC090
     FM011900 18007KT 5SM -RA BR BKN015 OVC100
     FM012100 16006KT P6SM OVC100
     FM020600 18004KT P6SM OVC007
     FM021600 21005KT P6SM BKN010 OVC020=

USA.gov is the U.S. government's official web portal to all federal, state and local government web resources and services.